Reecon Emir — 9HA3644 — position and weather

sailwx.info

Track history (hours):
 
Tides and Currents Weather Stations Pressure Air Temp Water Temp Dewpoint Dewpoint Depression Visibility Wind Speed Wind Dir Waves Ship Positions

Reecon Emir

Last reported at 2018-Feb-20 11:07 UTC. Time now 2018-Feb-20 17:58 UTC.
Position N 37°30' E 023°47'.

Length 146 m; draft 9 m.

Type: Cargo ship. MMSI: 229825000.

Date/timePositionNaut miles runAvg speedWind from/ knotsBaromVisibWave heightAir tempDewpointWater temp
2018-Feb-20 11:07N 37°30' E 023°47'1 9.5
2018-Feb-20 11:00N 37°31' E 023°46'5 9.3
2018-Feb-20 10:30N 37°36' E 023°44'5 9.4
2018-Feb-20 10:00N 37°40' E 023°42'5 9.4
2018-Feb-20 09:30N 37°44' E 023°40'5 9.9
2018-Feb-20 09:00N 37°49' E 023°37'5 9.7
2018-Feb-20 08:30N 37°53' E 023°37'4 7.8
2018-Feb-20 08:00N 37°57' E 023°36'0 0.3
2018-Feb-20 07:31N 37°58' E 023°36'0 0.0
2018-Feb-20 06:58N 37°58' E 023°36'0 0.0
2018-Feb-20 06:28N 37°58' E 023°36'0 0.0
2018-Feb-20 05:58N 37°58' E 023°36'0 0.0
2018-Feb-20 05:28N 37°58' E 023°36'0 0.0
2018-Feb-20 05:01N 37°58' E 023°36'0 0.0
2018-Feb-20 04:28N 37°58' E 023°36'0 0.0
2018-Feb-20 03:58N 37°58' E 023°36'0 0.0
2018-Feb-20 03:28N 37°58' E 023°36'0 0.0
2018-Feb-20 02:58N 37°58' E 023°36'0 0.0
2018-Feb-20 02:28N 37°58' E 023°36'0 0.0
2018-Feb-20 01:58N 37°58' E 023°36'0 0.0
2018-Feb-20 01:28N 37°58' E 023°36'0 0.0
2018-Feb-20 00:58N 37°58' E 023°36'0 0.0
2018-Feb-20 00:28N 37°58' E 023°36'0 0.0
2018-Feb-19 23:58N 37°58' E 023°36'0 0.0
2018-Feb-19 23:28N 37°58' E 023°36'0 0.0
2018-Feb-19 22:58N 37°58' E 023°36'0 0.0
2018-Feb-19 22:28N 37°58' E 023°36'0 0.0
2018-Feb-19 22:01N 37°58' E 023°36'0 0.0
2018-Feb-19 21:25N 37°58' E 023°36'0 0.0
2018-Feb-19 20:58N 37°58' E 023°36'0 0.0
2018-Feb-19 20:25N 37°58' E 023°36'0 0.0
2018-Feb-19 19:58N 37°58' E 023°36'0 0.0
2018-Feb-19 19:28N 37°58' E 023°36'0 0.0
2018-Feb-19 18:58N 37°58' E 023°36'0 0.0
2018-Feb-19 18:28N 37°58' E 023°36'0 0.0
2018-Feb-19 17:58N 37°58' E 023°36'0 0.0
2018-Feb-19 17:31N 37°58' E 023°36'0 0.0
2018-Feb-19 16:58N 37°58' E 023°36'0 0.0
2018-Feb-19 16:31N 37°58' E 023°36'0 0.0
2018-Feb-19 15:58N 37°58' E 023°36'0 0.0
2018-Feb-19 15:28N 37°58' E 023°36'0 0.0
2018-Feb-19 14:58N 37°58' E 023°36'0 0.0
2018-Feb-19 14:28N 37°58' E 023°36'0 0.0
2018-Feb-19 13:58N 37°58' E 023°36'0 0.0
2018-Feb-19 13:28N 37°58' E 023°36'0 0.9
2018-Feb-19 13:00N 37°57' E 023°36'2 4.0
2018-Feb-19 12:30N 37°55' E 023°37'1 1.7
2018-Feb-19 12:00N 37°55' E 023°37'4 8.2
2018-Feb-19 11:30N 37°51' E 023°39'510.5
2018-Feb-19 11:00N 37°46' E 023°42'510.4
2018-Feb-19 10:30N 37°41' E 023°45'5 9.8
2018-Feb-19 10:00N 37°39' E 023°50'610.3
2018-Feb-19 09:23N 37°37' E 023°58'1610.5
2018-Feb-19 07:49N 37°43' E 024°17'812.4
2018-Feb-19 07:12N 37°49' E 024°24'612.0
2018-Feb-19 06:42N 37°52' E 024°30'2711.4
2018-Feb-19 04:19N 38°19' E 024°35'412.7
2018-Feb-19 04:00N 38°23' E 024°33'712.9
2018-Feb-19 03:29N 38°29' E 024°28'  
2018-Feb-15 16:05N 37°38' E 023°53'110.5
2018-Feb-15 15:59N 37°38' E 023°52'510.6
2018-Feb-15 15:31N 37°39' E 023°46'5 9.7
2018-Feb-15 15:01N 37°42' E 023°41'510.7
2018-Feb-15 14:31N 37°47' E 023°38'611.2
2018-Feb-15 14:01N 37°53' E 023°37'5 9.4
2018-Feb-15 13:31N 37°57' E 023°36'0 0.4
2018-Feb-15 12:59N 37°57' E 023°36'0 0.0
2018-Feb-15 12:29N 37°57' E 023°36'0 0.0
2018-Feb-15 11:59N 37°57' E 023°36'0 0.0
2018-Feb-15 11:29N 37°57' E 023°36'0 0.0
2018-Feb-15 10:59N 37°57' E 023°36'0 0.0
2018-Feb-15 10:29N 37°57' E 023°36'0 0.0
2018-Feb-15 09:59N 37°57' E 023°36'0 0.0
2018-Feb-15 09:29N 37°57' E 023°36'0 0.0
2018-Feb-15 08:59N 37°57' E 023°36'0 0.0
2018-Feb-15 08:29N 37°57' E 023°36'0 0.0
2018-Feb-15 07:59N 37°57' E 023°36'0 0.0
2018-Feb-15 07:29N 37°57' E 023°36'0 0.0
2018-Feb-15 06:59N 37°57' E 023°36'0 0.0
2018-Feb-15 06:29N 37°57' E 023°36'0 0.0
2018-Feb-15 05:59N 37°57' E 023°36'0 0.0
2018-Feb-15 05:29N 37°57' E 023°36'0 0.0
2018-Feb-15 04:59N 37°57' E 023°36'0 0.0
2018-Feb-15 04:29N 37°57' E 023°36'0 0.0
2018-Feb-15 03:59N 37°57' E 023°36'0 0.0
2018-Feb-15 03:29N 37°57' E 023°36'0 0.0
2018-Feb-15 02:59N 37°57' E 023°36'0 0.0
2018-Feb-15 02:29N 37°57' E 023°36'0 0.0
2018-Feb-15 01:59N 37°57' E 023°36'0 0.0
2018-Feb-15 01:29N 37°57' E 023°36'0 0.0
2018-Feb-15 00:59N 37°57' E 023°36'0 0.0
2018-Feb-15 00:29N 37°57' E 023°36'0 0.0
2018-Feb-14 23:59N 37°57' E 023°36'0 0.0
2018-Feb-14 23:29N 37°57' E 023°36'0 0.0
2018-Feb-14 22:59N 37°57' E 023°36'0 0.0
2018-Feb-14 22:29N 37°57' E 023°36'0 0.0
2018-Feb-14 21:59N 37°57' E 023°36'0 0.0
2018-Feb-14 21:29N 37°57' E 023°36'0 0.0
2018-Feb-14 20:59N 37°57' E 023°36'0 0.0
2018-Feb-14 20:29N 37°57' E 023°36'0 0.0
2018-Feb-14 19:59N 37°57' E 023°36'0 0.0
2018-Feb-14 19:30N 37°57' E 023°36'2 4.5
2018-Feb-14 19:00N 37°55' E 023°36'1 1.3
2018-Feb-14 18:30N 37°55' E 023°36'3 5.3
2018-Feb-14 18:00N 37°54' E 023°33'0 0.2
2018-Feb-14 17:30N 37°54' E 023°33'0 0.1
2018-Feb-14 17:00N 37°54' E 023°33'0 0.1
2018-Feb-14 16:30N 37°54' E 023°33'0 0.0
2018-Feb-14 16:00N 37°54' E 023°33'0 0.0
2018-Feb-14 15:30N 37°54' E 023°33'0 0.1
2018-Feb-14 15:01N 37°54' E 023°33'0 0.0
2018-Feb-14 14:30N 37°54' E 023°33'0 0.0
2018-Feb-14 14:00N 37°54' E 023°33'0 0.1
2018-Feb-14 13:30N 37°54' E 023°33'0 0.0
2018-Feb-14 13:01N 37°54' E 023°33'0 0.3
2018-Feb-14 12:30N 37°54' E 023°33'0 0.2
2018-Feb-14 12:00N 37°54' E 023°33'0 0.0
2018-Feb-14 11:30N 37°54' E 023°33'0 0.2
2018-Feb-14 11:00N 37°54' E 023°33'0 0.1
2018-Feb-14 10:30N 37°54' E 023°33'0 0.1
2018-Feb-14 10:00N 37°54' E 023°33'0 0.2
2018-Feb-14 09:30N 37°54' E 023°33'0 0.0
2018-Feb-14 09:01N 37°54' E 023°33'0 0.0
2018-Feb-14 08:30N 37°54' E 023°33'0 0.0
2018-Feb-14 08:00N 37°54' E 023°33'0 0.0
2018-Feb-14 07:30N 37°54' E 023°33'0 0.1
2018-Feb-14 07:00N 37°54' E 023°33'0 0.0
2018-Feb-14 06:30N 37°54' E 023°33'0 0.0
2018-Feb-14 06:00N 37°54' E 023°33'0 0.1
2018-Feb-14 05:30N 37°54' E 023°33'0 0.0
2018-Feb-14 05:00N 37°54' E 023°33'0 0.2
2018-Feb-14 04:30N 37°54' E 023°33'0 0.1
2018-Feb-14 04:01N 37°54' E 023°33'0 0.1
2018-Feb-14 03:30N 37°54' E 023°33'0 0.0
2018-Feb-14 03:00N 37°54' E 023°33'0 0.0
2018-Feb-14 02:30N 37°54' E 023°33'0 0.0
2018-Feb-14 02:00N 37°54' E 023°33'0 0.0
2018-Feb-14 01:31N 37°54' E 023°33'0 0.0
2018-Feb-14 01:01N 37°54' E 023°33'0 0.0
2018-Feb-14 00:30N 37°54' E 023°33'0 0.1
2018-Feb-14 00:01N 37°54' E 023°33'0 0.0
2018-Feb-13 23:30N 37°54' E 023°33'0 0.1
2018-Feb-13 23:00N 37°54' E 023°33'0 0.1
2018-Feb-13 22:30N 37°54' E 023°33'0 0.2
2018-Feb-13 22:00N 37°54' E 023°33'0 0.1
2018-Feb-13 21:31N 37°54' E 023°33'0 0.0
2018-Feb-13 21:01N 37°54' E 023°33'0 0.1
2018-Feb-13 20:30N 37°54' E 023°33'0 0.1
2018-Feb-13 20:00N 37°54' E 023°32'0 0.0
2018-Feb-13 19:31N 37°54' E 023°32'0 0.0
2018-Feb-13 19:00N 37°54' E 023°33'0 0.0
2018-Feb-13 18:30N 37°54' E 023°32'0 0.0
2018-Feb-13 18:01N 37°54' E 023°32'0 0.0
2018-Feb-13 17:30N 37°54' E 023°32'0 0.0
2018-Feb-13 17:01N 37°54' E 023°32'0 0.1
2018-Feb-13 16:31N 37°54' E 023°32'0 0.0
2018-Feb-13 16:00N 37°54' E 023°32'0 0.0
2018-Feb-13 15:30N 37°54' E 023°32'0 0.0
2018-Feb-13 15:00N 37°54' E 023°32'0 0.0
2018-Feb-13 14:30N 37°54' E 023°32'0 0.0
2018-Feb-13 14:00N 37°54' E 023°32'0 0.0
2018-Feb-13 13:30N 37°54' E 023°32'0 0.5
2018-Feb-13 13:00N 37°54' E 023°32'3 6.4
2018-Feb-13 12:31N 37°53' E 023°36'5 9.9
2018-Feb-13 12:00N 37°49' E 023°41'510.1
2018-Feb-13 11:30N 37°45' E 023°43'510.1
2018-Feb-13 11:00N 37°40' E 023°46'510.0
2018-Feb-13 10:30N 37°38' E 023°52'510.1
2018-Feb-13 10:00N 37°37' E 023°58'610.2
2018-Feb-13 09:25N 37°37' E 024°06'1010.2
2018-Feb-13 08:27N 37°43' E 024°15'610.1
2018-Feb-13 07:54N 37°46' E 024°21'4 9.9
2018-Feb-13 07:27N 37°48' E 024°26'8 9.8
2018-Feb-13 06:36N 37°54' E 024°34'4 9.8
2018-Feb-13 06:14N 37°57' E 024°37'  
Track history (hours):
 
Tides and Currents Weather Stations Pressure Air Temp Water Temp Dewpoint Dewpoint Depression Visibility Wind Speed Wind Dir Waves Ship Positions

Reecon Emir

Last reported at 2018-Feb-20 11:07 UTC. Time now 2018-Feb-20 17:58 UTC.
Position N 37°30' E 023°47'.

Length 146 m; draft 9 m.

Type: Cargo ship. MMSI: 229825000.

Date/timePositionNaut miles runAvg speedWind from/ knotsBaromVisibWave heightAir tempDewpointWater temp
2018-Feb-20 11:07N 37°30' E 023°47'1 9.5
2018-Feb-20 11:00N 37°31' E 023°46'5 9.3
2018-Feb-20 10:30N 37°36' E 023°44'5 9.4
2018-Feb-20 10:00N 37°40' E 023°42'5 9.4
2018-Feb-20 09:30N 37°44' E 023°40'5 9.9
2018-Feb-20 09:00N 37°49' E 023°37'5 9.7
2018-Feb-20 08:30N 37°53' E 023°37'4 7.8
2018-Feb-20 08:00N 37°57' E 023°36'0 0.3
2018-Feb-20 07:31N 37°58' E 023°36'0 0.0
2018-Feb-20 06:58N 37°58' E 023°36'0 0.0
2018-Feb-20 06:28N 37°58' E 023°36'0 0.0
2018-Feb-20 05:58N 37°58' E 023°36'0 0.0
2018-Feb-20 05:28N 37°58' E 023°36'0 0.0
2018-Feb-20 05:01N 37°58' E 023°36'0 0.0
2018-Feb-20 04:28N 37°58' E 023°36'0 0.0
2018-Feb-20 03:58N 37°58' E 023°36'0 0.0
2018-Feb-20 03:28N 37°58' E 023°36'0 0.0
2018-Feb-20 02:58N 37°58' E 023°36'0 0.0
2018-Feb-20 02:28N 37°58' E 023°36'0 0.0
2018-Feb-20 01:58N 37°58' E 023°36'0 0.0
2018-Feb-20 01:28N 37°58' E 023°36'0 0.0
2018-Feb-20 00:58N 37°58' E 023°36'0 0.0
2018-Feb-20 00:28N 37°58' E 023°36'0 0.0
2018-Feb-19 23:58N 37°58' E 023°36'0 0.0
2018-Feb-19 23:28N 37°58' E 023°36'0 0.0
2018-Feb-19 22:58N 37°58' E 023°36'0 0.0
2018-Feb-19 22:28N 37°58' E 023°36'0 0.0
2018-Feb-19 22:01N 37°58' E 023°36'0 0.0
2018-Feb-19 21:25N 37°58' E 023°36'0 0.0
2018-Feb-19 20:58N 37°58' E 023°36'0 0.0
2018-Feb-19 20:25N 37°58' E 023°36'0 0.0
2018-Feb-19 19:58N 37°58' E 023°36'0 0.0
2018-Feb-19 19:28N 37°58' E 023°36'0 0.0
2018-Feb-19 18:58N 37°58' E 023°36'0 0.0
2018-Feb-19 18:28N 37°58' E 023°36'0 0.0
2018-Feb-19 17:58N 37°58' E 023°36'0 0.0
2018-Feb-19 17:31N 37°58' E 023°36'0 0.0
2018-Feb-19 16:58N 37°58' E 023°36'0 0.0
2018-Feb-19 16:31N 37°58' E 023°36'0 0.0
2018-Feb-19 15:58N 37°58' E 023°36'0 0.0
2018-Feb-19 15:28N 37°58' E 023°36'0 0.0
2018-Feb-19 14:58N 37°58' E 023°36'0 0.0
2018-Feb-19 14:28N 37°58' E 023°36'0 0.0
2018-Feb-19 13:58N 37°58' E 023°36'0 0.0
2018-Feb-19 13:28N 37°58' E 023°36'0 0.9
2018-Feb-19 13:00N 37°57' E 023°36'2 4.0
2018-Feb-19 12:30N 37°55' E 023°37'1 1.7
2018-Feb-19 12:00N 37°55' E 023°37'4 8.2
2018-Feb-19 11:30N 37°51' E 023°39'510.5
2018-Feb-19 11:00N 37°46' E 023°42'510.4
2018-Feb-19 10:30N 37°41' E 023°45'5 9.8
2018-Feb-19 10:00N 37°39' E 023°50'610.3
2018-Feb-19 09:23N 37°37' E 023°58'1610.5
2018-Feb-19 07:49N 37°43' E 024°17'812.4
2018-Feb-19 07:12N 37°49' E 024°24'612.0
2018-Feb-19 06:42N 37°52' E 024°30'2711.4
2018-Feb-19 04:19N 38°19' E 024°35'412.7
2018-Feb-19 04:00N 38°23' E 024°33'712.9
2018-Feb-19 03:29N 38°29' E 024°28'  
2018-Feb-15 16:05N 37°38' E 023°53'110.5
2018-Feb-15 15:59N 37°38' E 023°52'510.6
2018-Feb-15 15:31N 37°39' E 023°46'5 9.7
2018-Feb-15 15:01N 37°42' E 023°41'510.7
2018-Feb-15 14:31N 37°47' E 023°38'611.2
2018-Feb-15 14:01N 37°53' E 023°37'5 9.4
2018-Feb-15 13:31N 37°57' E 023°36'0 0.4
2018-Feb-15 12:59N 37°57' E 023°36'0 0.0
2018-Feb-15 12:29N 37°57' E 023°36'0 0.0
2018-Feb-15 11:59N 37°57' E 023°36'0 0.0
2018-Feb-15 11:29N 37°57' E 023°36'0 0.0
2018-Feb-15 10:59N 37°57' E 023°36'0 0.0
2018-Feb-15 10:29N 37°57' E 023°36'0 0.0
2018-Feb-15 09:59N 37°57' E 023°36'0 0.0
2018-Feb-15 09:29N 37°57' E 023°36'0 0.0
2018-Feb-15 08:59N 37°57' E 023°36'0 0.0
2018-Feb-15 08:29N 37°57' E 023°36'0 0.0
2018-Feb-15 07:59N 37°57' E 023°36'0 0.0
2018-Feb-15 07:29N 37°57' E 023°36'0 0.0
2018-Feb-15 06:59N 37°57' E 023°36'0 0.0
2018-Feb-15 06:29N 37°57' E 023°36'0 0.0
2018-Feb-15 05:59N 37°57' E 023°36'0 0.0
2018-Feb-15 05:29N 37°57' E 023°36'0 0.0
2018-Feb-15 04:59N 37°57' E 023°36'0 0.0
2018-Feb-15 04:29N 37°57' E 023°36'0 0.0
2018-Feb-15 03:59N 37°57' E 023°36'0 0.0
2018-Feb-15 03:29N 37°57' E 023°36'0 0.0
2018-Feb-15 02:59N 37°57' E 023°36'0 0.0
2018-Feb-15 02:29N 37°57' E 023°36'0 0.0
2018-Feb-15 01:59N 37°57' E 023°36'0 0.0
2018-Feb-15 01:29N 37°57' E 023°36'0 0.0
2018-Feb-15 00:59N 37°57' E 023°36'0 0.0
2018-Feb-15 00:29N 37°57' E 023°36'0 0.0
2018-Feb-14 23:59N 37°57' E 023°36'0 0.0
2018-Feb-14 23:29N 37°57' E 023°36'0 0.0
2018-Feb-14 22:59N 37°57' E 023°36'0 0.0
2018-Feb-14 22:29N 37°57' E 023°36'0 0.0
2018-Feb-14 21:59N 37°57' E 023°36'0 0.0
2018-Feb-14 21:29N 37°57' E 023°36'0 0.0
2018-Feb-14 20:59N 37°57' E 023°36'0 0.0
2018-Feb-14 20:29N 37°57' E 023°36'0 0.0
2018-Feb-14 19:59N 37°57' E 023°36'0 0.0
2018-Feb-14 19:30N 37°57' E 023°36'2 4.5
2018-Feb-14 19:00N 37°55' E 023°36'1 1.3
2018-Feb-14 18:30N 37°55' E 023°36'3 5.3
2018-Feb-14 18:00N 37°54' E 023°33'0 0.2
2018-Feb-14 17:30N 37°54' E 023°33'0 0.1
2018-Feb-14 17:00N 37°54' E 023°33'0 0.1
2018-Feb-14 16:30N 37°54' E 023°33'0 0.0
2018-Feb-14 16:00N 37°54' E 023°33'0 0.0
2018-Feb-14 15:30N 37°54' E 023°33'0 0.1
2018-Feb-14 15:01N 37°54' E 023°33'0 0.0
2018-Feb-14 14:30N 37°54' E 023°33'0 0.0
2018-Feb-14 14:00N 37°54' E 023°33'0 0.1
2018-Feb-14 13:30N 37°54' E 023°33'0 0.0
2018-Feb-14 13:01N 37°54' E 023°33'0 0.3
2018-Feb-14 12:30N 37°54' E 023°33'0 0.2
2018-Feb-14 12:00N 37°54' E 023°33'0 0.0
2018-Feb-14 11:30N 37°54' E 023°33'0 0.2
2018-Feb-14 11:00N 37°54' E 023°33'0 0.1
2018-Feb-14 10:30N 37°54' E 023°33'0 0.1
2018-Feb-14 10:00N 37°54' E 023°33'0 0.2
2018-Feb-14 09:30N 37°54' E 023°33'0 0.0
2018-Feb-14 09:01N 37°54' E 023°33'0 0.0
2018-Feb-14 08:30N 37°54' E 023°33'0 0.0
2018-Feb-14 08:00N 37°54' E 023°33'0 0.0
2018-Feb-14 07:30N 37°54' E 023°33'0 0.1
2018-Feb-14 07:00N 37°54' E 023°33'0 0.0
2018-Feb-14 06:30N 37°54' E 023°33'0 0.0
2018-Feb-14 06:00N 37°54' E 023°33'0 0.1
2018-Feb-14 05:30N 37°54' E 023°33'0 0.0
2018-Feb-14 05:00N 37°54' E 023°33'0 0.2
2018-Feb-14 04:30N 37°54' E 023°33'0 0.1
2018-Feb-14 04:01N 37°54' E 023°33'0 0.1
2018-Feb-14 03:30N 37°54' E 023°33'0 0.0
2018-Feb-14 03:00N 37°54' E 023°33'0 0.0
2018-Feb-14 02:30N 37°54' E 023°33'0 0.0
2018-Feb-14 02:00N 37°54' E 023°33'0 0.0
2018-Feb-14 01:31N 37°54' E 023°33'0 0.0
2018-Feb-14 01:01N 37°54' E 023°33'0 0.0
2018-Feb-14 00:30N 37°54' E 023°33'0 0.1
2018-Feb-14 00:01N 37°54' E 023°33'0 0.0
2018-Feb-13 23:30N 37°54' E 023°33'0 0.1
2018-Feb-13 23:00N 37°54' E 023°33'0 0.1
2018-Feb-13 22:30N 37°54' E 023°33'0 0.2
2018-Feb-13 22:00N 37°54' E 023°33'0 0.1
2018-Feb-13 21:31N 37°54' E 023°33'0 0.0
2018-Feb-13 21:01N 37°54' E 023°33'0 0.1
2018-Feb-13 20:30N 37°54' E 023°33'0 0.1
2018-Feb-13 20:00N 37°54' E 023°32'0 0.0
2018-Feb-13 19:31N 37°54' E 023°32'0 0.0
2018-Feb-13 19:00N 37°54' E 023°33'0 0.0
2018-Feb-13 18:30N 37°54' E 023°32'0 0.0
2018-Feb-13 18:01N 37°54' E 023°32'0 0.0
2018-Feb-13 17:30N 37°54' E 023°32'0 0.0
2018-Feb-13 17:01N 37°54' E 023°32'0 0.1
2018-Feb-13 16:31N 37°54' E 023°32'0 0.0
2018-Feb-13 16:00N 37°54' E 023°32'0 0.0
2018-Feb-13 15:30N 37°54' E 023°32'0 0.0
2018-Feb-13 15:00N 37°54' E 023°32'0 0.0
2018-Feb-13 14:30N 37°54' E 023°32'0 0.0
2018-Feb-13 14:00N 37°54' E 023°32'0 0.0
2018-Feb-13 13:30N 37°54' E 023°32'0 0.5
2018-Feb-13 13:00N 37°54' E 023°32'3 6.4
2018-Feb-13 12:31N 37°53' E 023°36'5 9.9
2018-Feb-13 12:00N 37°49' E 023°41'510.1
2018-Feb-13 11:30N 37°45' E 023°43'510.1
2018-Feb-13 11:00N 37°40' E 023°46'510.0
2018-Feb-13 10:30N 37°38' E 023°52'510.1
2018-Feb-13 10:00N 37°37' E 023°58'610.2
2018-Feb-13 09:25N 37°37' E 024°06'1010.2
2018-Feb-13 08:27N 37°43' E 024°15'610.1
2018-Feb-13 07:54N 37°46' E 024°21'4 9.9
2018-Feb-13 07:27N 37°48' E 024°26'8 9.8
2018-Feb-13 06:36N 37°54' E 024°34'4 9.8
2018-Feb-13 06:14N 37°57' E 024°37'  

Dump ship's entire track history